Time;durP1;ratioP1;P1;durP2;ratioP2;P2;SDS_P1;SDS_P2;PMS_P1;PMS_P2;Temp;Humidity;BMP_temperature;BMP_pressure;BME280_temperature;BME280_humidity;BME280_pressure;Samples;Min_cycle;Max_cycle;Signal;HPM_P1;HPM_P2
2022/09/21 00:00:04;;;;;;;17.42;8.40;;;;;;;;;;1644907;87;21029;-77
2022/09/21 00:02:29;;;;;;;18.85;8.10;;;;;;;;;;1645037;85;21502;-77
2022/09/21 00:04:55;;;;;;;21.77;9.03;;;;;;;;;;1676919;81;21108;-77
2022/09/21 00:07:21;;;;;;;21.80;9.18;;;;;;;;;;1761659;81;21710;-77
2022/09/21 00:09:47;;;;;;;28.60;9.95;;;;;;;;;;1761565;81;20859;-77
2022/09/21 00:12:13;;;;;;;21.15;8.35;;;;;;;;;;1761727;81;20973;-77
2022/09/21 00:14:39;;;;;;;19.85;8.10;;;;;;;;;;1761281;81;21038;-77
2022/09/21 00:17:05;;;;;;;18.62;7.58;;;;;;;;;;1736304;81;21592;-78
2022/09/21 00:19:30;;;;;;;17.92;7.28;;;;;;;;;;1761440;81;20895;-78
2022/09/21 00:21:56;;;;;;;17.15;6.55;;;;;;;;;;1761533;81;21073;-78
2022/09/21 00:24:22;;;;;;;18.95;6.30;;;;;;;;;;1761464;81;20855;-78
2022/09/21 00:26:48;;;;;;;18.25;5.37;;;;;;;;;;1769480;78;20884;-78
2022/09/21 00:29:13;;;;;;;14.87;5.97;;;;;;;;;;1815514;79;21834;-78
2022/09/21 00:31:39;;;;;;;14.03;6.10;;;;;;;;;;1813034;77;20891;-78
2022/09/21 00:34:08;;;;;;;11.38;5.03;;;;;;;;;;1821477;78;20956;-78
2022/09/21 00:36:34;;;;;;;12.45;4.97;;;;;;;;;;1821042;78;21145;-78
2022/09/21 00:39:01;;;;;;;10.88;4.40;;;;;;;;;;1821164;78;21044;-78
2022/09/21 00:41:28;;;;;;;14.03;4.10;;;;;;;;;;1821310;78;21113;-78
2022/09/21 00:44:24;;;;;;;9.65;3.70;;;;;;;;;;1821359;78;21011;-78
2022/09/21 00:46:51;;;;;;;6.97;3.10;;;;;;;;;;1821342;78;21023;-80
2022/09/21 00:49:17;;;;;;;6.67;3.45;;;;;;;;;;1821467;78;20969;-78
2022/09/21 00:51:44;;;;;;;8.90;3.40;;;;;;;;;;1821525;78;21464;-78
2022/09/21 00:54:14;;;;;;;9.18;3.10;;;;;;;;;;1821438;78;21059;-78
2022/09/21 00:56:41;;;;;;;10.03;3.30;;;;;;;;;;1818021;78;21270;-78
2022/09/21 00:59:08;;;;;;;8.78;3.58;;;;;;;;;;1821218;78;20989;-78
2022/09/21 01:01:35;;;;;;;6.50;3.12;;;;;;;;;;1821561;78;21087;-79
2022/09/21 01:04:02;;;;;;;5.75;2.87;;;;;;;;;;1821040;78;21012;-78
2022/09/21 01:06:27;;;;;;;8.85;3.30;;;;;;;;;;1817586;78;21072;-78
2022/09/21 01:08:55;;;;;;;5.97;2.90;;;;;;;;;;1821253;78;20956;-78
2022/09/21 01:11:24;;;;;;;6.12;2.92;;;;;;;;;;1821359;78;20992;-77
2022/09/21 01:14:03;;;;;;;5.50;3.10;;;;;;;;;;1821294;78;21024;-78
2022/09/21 01:16:38;;;;;;;12.13;3.58;;;;;;;;;;1821476;78;20984;-77
2022/09/21 01:19:16;;;;;;;9.78;4.05;;;;;;;;;;1696523;84;21985;-78
2022/09/21 01:22:04;;;;;;;8.35;3.75;;;;;;;;;;1697963;83;21101;-77
2022/09/21 01:24:33;;;;;;;14.53;4.60;;;;;;;;;;1682353;85;21663;-78
2022/09/21 01:27:30;;;;;;;26.95;8.95;;;;;;;;;;1672776;85;21082;-77
2022/09/21 01:30:06;;;;;;;30.80;9.68;;;;;;;;;;1684369;85;21105;-78
2022/09/21 01:32:53;;;;;;;16.73;5.75;;;;;;;;;;1672231;85;21251;-78
2022/09/21 01:35:25;;;;;;;8.15;3.77;;;;;;;;;;1684756;85;21006;-77
2022/09/21 01:38:02;;;;;;;9.35;3.58;;;;;;;;;;1684935;85;21082;-78
2022/09/21 01:40:38;;;;;;;7.03;3.22;;;;;;;;;;1684640;85;21081;-77
2022/09/21 01:43:05;;;;;;;12.18;3.60;;;;;;;;;;1688977;85;21209;-77
2022/09/21 01:45:34;;;;;;;7.87;3.15;;;;;;;;;;1689268;85;21117;-77
2022/09/21 01:48:02;;;;;;;8.75;3.40;;;;;;;;;;1689290;85;21542;-77
2022/09/21 01:50:31;;;;;;;7.08;3.83;;;;;;;;;;1688909;85;21085;-78
2022/09/21 01:53:10;;;;;;;20.85;5.70;;;;;;;;;;1689130;85;21079;-78
2022/09/21 01:55:45;;;;;;;21.40;7.00;;;;;;;;;;1688895;84;21070;-78
2022/09/21 01:58:16;;;;;;;22.35;7.95;;;;;;;;;;1620678;88;21526;-78
2022/09/21 02:00:45;;;;;;;23.18;7.45;;;;;;;;;;1618569;88;21503;-78
2022/09/21 02:03:29;;;;;;;42.60;14.33;;;;;;;;;;1618877;88;21039;-78
2022/09/21 02:05:56;;;;;;;28.70;9.38;;;;;;;;;;1618867;88;21067;-78
2022/09/21 02:08:25;;;;;;;33.70;11.28;;;;;;;;;;1619173;88;21058;-78
2022/09/21 02:10:51;;;;;;;29.60;10.03;;;;;;;;;;1618779;88;21072;-77
2022/09/21 02:13:19;;;;;;;25.20;8.93;;;;;;;;;;1619135;88;21765;-78
2022/09/21 02:15:51;;;;;;;16.12;5.70;;;;;;;;;;1647679;86;21078;-79
2022/09/21 02:18:52;;;;;;;12.40;4.85;;;;;;;;;;1727201;82;21126;-78
2022/09/21 02:21:30;;;;;;;14.10;4.20;;;;;;;;;;1730394;82;21114;-78
2022/09/21 02:24:20;;;;;;;13.00;5.40;;;;;;;;;;1681812;85;21098;-78
2022/09/21 02:26:52;;;;;;;12.75;5.08;;;;;;;;;;1650339;86;21205;-78
2022/09/21 02:29:34;;;;;;;9.67;4.23;;;;;;;;;;1597565;89;21082;-78
2022/09/21 02:32:15;;;;;;;15.05;4.10;;;;;;;;;;1592774;89;21106;-78
2022/09/21 02:34:46;;;;;;;8.20;4.30;;;;;;;;;;1597742;89;21007;-78
2022/09/21 02:37:21;;;;;;;11.85;4.90;;;;;;;;;;1601053;89;21167;-78
2022/09/21 02:39:53;;;;;;;8.80;4.35;;;;;;;;;;1575529;89;21199;-78
2022/09/21 02:42:23;;;;;;;8.63;4.33;;;;;;;;;;1556418;92;20994;-78
2022/09/21 02:45:04;;;;;;;11.12;3.95;;;;;;;;;;1540646;93;21129;-78
2022/09/21 02:47:43;;;;;;;15.25;4.40;;;;;;;;;;1540415;93;21695;-78
2022/09/21 02:50:12;;;;;;;9.58;3.67;;;;;;;;;;1540746;93;21158;-78
2022/09/21 02:52:40;;;;;;;9.65;4.58;;;;;;;;;;1556133;92;21304;-78
2022/09/21 02:55:06;;;;;;;9.30;4.10;;;;;;;;;;1556031;92;21097;-78
2022/09/21 02:57:32;;;;;;;10.43;4.55;;;;;;;;;;1556078;92;21060;-78
2022/09/21 02:59:58;;;;;;;21.37;6.22;;;;;;;;;;1556049;92;21046;-78
2022/09/21 03:02:24;;;;;;;14.63;5.70;;;;;;;;;;1583614;87;21082;-78
2022/09/21 03:04:49;;;;;;;17.32;5.60;;;;;;;;;;1665970;86;22464;-78
2022/09/21 03:07:16;;;;;;;12.20;4.37;;;;;;;;;;1661641;86;20971;-77
2022/09/21 03:09:42;;;;;;;12.20;4.33;;;;;;;;;;1661948;86;21043;-77
2022/09/21 03:12:08;;;;;;;11.05;5.15;;;;;;;;;;1660252;86;20986;-77
2022/09/21 03:14:33;;;;;;;11.83;4.40;;;;;;;;;;1660042;86;21597;-77
2022/09/21 03:17:00;;;;;;;10.70;4.50;;;;;;;;;;1660239;86;20875;-77
2022/09/21 03:19:27;;;;;;;13.03;4.53;;;;;;;;;;1665821;86;21040;-77
2022/09/21 03:21:53;;;;;;;11.75;4.50;;;;;;;;;;1751988;81;21052;-77
2022/09/21 03:24:44;;;;;;;10.75;4.42;;;;;;;;;;1801961;79;20992;-77
2022/09/21 03:26:47;;;;;;;11.78;4.58;;;;;;;;;;1806779;79;21605;-77
2022/09/21 03:29:14;;;;;;;9.00;4.03;;;;;;;;;;1813262;79;21012;-77
2022/09/21 03:31:40;;;;;;;9.50;3.92;;;;;;;;;;1813490;78;21081;-78
2022/09/21 03:34:06;;;;;;;14.13;5.10;;;;;;;;;;1818454;78;21017;-78
2022/09/21 03:36:31;;;;;;;15.85;4.60;;;;;;;;;;1818270;78;21447;-78
2022/09/21 03:38:57;;;;;;;15.65;5.03;;;;;;;;;;1818274;78;21078;-77
2022/09/21 03:41:23;;;;;;;15.80;4.20;;;;;;;;;;1818026;78;20884;-77
2022/09/21 03:43:49;;;;;;;9.38;4.45;;;;;;;;;;1817982;78;21059;-78
2022/09/21 03:46:15;;;;;;;15.48;4.80;;;;;;;;;;1818320;78;20934;-78
2022/09/21 03:48:46;;;;;;;19.92;5.00;;;;;;;;;;1817957;77;21015;-78
2022/09/21 03:51:09;;;;;;;17.75;5.10;;;;;;;;;;1813765;79;21031;-78
2022/09/21 03:53:34;;;;;;;19.50;5.55;;;;;;;;;;1818284;78;20875;-78
2022/09/21 03:56:00;;;;;;;19.80;5.45;;;;;;;;;;1818345;78;21644;-78
2022/09/21 03:58:26;;;;;;;18.10;5.90;;;;;;;;;;1818144;78;20919;-79
2022/09/21 04:00:53;;;;;;;17.23;5.53;;;;;;;;;;1818322;78;20853;-78
2022/09/21 04:03:19;;;;;;;22.45;5.72;;;;;;;;;;1818098;79;21090;-78
2022/09/21 04:05:44;;;;;;;24.75;5.92;;;;;;;;;;1818130;78;21592;-78
2022/09/21 04:08:10;;;;;;;16.70;5.70;;;;;;;;;;1818193;78;20891;-78
2022/09/21 04:10:39;;;;;;;25.62;6.92;;;;;;;;;;1818172;77;22415;-79
2022/09/21 04:13:05;;;;;;;19.45;6.28;;;;;;;;;;1818057;79;21026;-78
2022/09/21 04:15:31;;;;;;;17.42;5.50;;;;;;;;;;1818261;78;20962;-78
2022/09/21 04:17:58;;;;;;;17.70;4.65;;;;;;;;;;1818080;78;20856;-78
2022/09/21 04:20:23;;;;;;;11.05;3.72;;;;;;;;;;1818221;79;21031;-79
2022/09/21 04:22:50;;;;;;;8.40;3.70;;;;;;;;;;1818257;78;20880;-78
2022/09/21 04:25:16;;;;;;;10.65;4.17;;;;;;;;;;1817888;77;21101;-78
2022/09/21 04:27:42;;;;;;;12.82;3.62;;;;;;;;;;1810415;78;21975;-78
2022/09/21 04:30:10;;;;;;;10.88;3.85;;;;;;;;;;1816977;78;20860;-78
2022/09/21 04:32:36;;;;;;;9.95;3.72;;;;;;;;;;1812572;77;21140;-78
2022/09/21 04:35:02;;;;;;;11.43;3.25;;;;;;;;;;1808150;79;21081;-78
2022/09/21 04:37:27;;;;;;;13.18;3.80;;;;;;;;;;1808254;79;20876;-78
2022/09/21 04:39:53;;;;;;;14.07;4.35;;;;;;;;;;1808060;79;21164;-78
2022/09/21 04:42:19;;;;;;;9.45;3.77;;;;;;;;;;1796918;78;20866;-78
2022/09/21 04:44:45;;;;;;;13.65;4.50;;;;;;;;;;1796980;79;20866;-77
2022/09/21 04:47:11;;;;;;;11.10;4.12;;;;;;;;;;1796827;79;20842;-78
2022/09/21 04:49:37;;;;;;;13.00;4.42;;;;;;;;;;1796876;79;21009;-78
2022/09/21 04:52:03;;;;;;;13.72;4.72;;;;;;;;;;1797979;79;21517;-78
2022/09/21 04:54:29;;;;;;;11.90;4.22;;;;;;;;;;1799035;79;21565;-79
2022/09/21 04:56:56;;;;;;;12.20;4.40;;;;;;;;;;1799344;79;20965;-78
2022/09/21 04:59:21;;;;;;;13.45;4.85;;;;;;;;;;1798815;79;20990;-79
2022/09/21 05:01:47;;;;;;;8.80;4.00;;;;;;;;;;1799380;78;20914;-79
2022/09/21 05:04:13;;;;;;;10.65;4.10;;;;;;;;;;1802192;78;21077;-77
2022/09/21 05:06:39;;;;;;;12.05;4.03;;;;;;;;;;1784067;78;20977;-79
2022/09/21 05:11:50;;;;;;;11.18;4.00;;;;;;;;;;1780857;79;21094;-78
2022/09/21 05:14:16;;;;;;;12.70;4.15;;;;;;;;;;1764787;81;21004;-78
2022/09/21 05:16:42;;;;;;;9.63;3.77;;;;;;;;;;1793922;78;21185;-77
2022/09/21 05:19:07;;;;;;;8.93;3.77;;;;;;;;;;1783758;79;20849;-79
2022/09/21 05:21:35;;;;;;;10.15;4.50;;;;;;;;;;1767146;80;20991;-82
2022/09/21 05:24:01;;;;;;;7.97;4.28;;;;;;;;;;1772252;79;21329;-79
2022/09/21 05:26:27;;;;;;;14.50;4.40;;;;;;;;;;1770178;79;21006;-80
2022/09/21 05:28:53;;;;;;;9.55;4.55;;;;;;;;;;1797252;79;21084;-80
2022/09/21 05:31:41;;;;;;;11.50;5.20;;;;;;;;;;1797157;79;21011;-83
2022/09/21 05:34:13;;;;;;;7.60;4.40;;;;;;;;;;1799500;79;20999;-82
2022/09/21 05:36:46;;;;;;;8.80;4.25;;;;;;;;;;1793758;79;21032;-82
2022/09/21 05:39:12;;;;;;;6.33;3.72;;;;;;;;;;1795589;79;21055;-85
2022/09/21 05:41:38;;;;;;;8.05;3.75;;;;;;;;;;1796161;79;21217;-83
2022/09/21 05:44:05;;;;;;;5.67;3.42;;;;;;;;;;1796305;79;21607;-83
2022/09/21 05:46:44;;;;;;;7.25;3.40;;;;;;;;;;1795948;79;21020;-84
2022/09/21 05:49:44;;;;;;;9.18;3.90;;;;;;;;;;1729830;82;21080;-82
2022/09/21 05:52:25;;;;;;;7.35;3.85;;;;;;;;;;1730975;81;21099;-82
2022/09/21 05:55:11;;;;;;;6.62;4.00;;;;;;;;;;1731424;82;21098;-82
2022/09/21 05:57:46;;;;;;;12.55;4.30;;;;;;;;;;1719092;81;21681;-82
2022/09/21 06:00:18;;;;;;;6.97;3.80;;;;;;;;;;1754791;81;21033;-81
2022/09/21 06:02:56;;;;;;;9.35;4.30;;;;;;;;;;1767609;81;28599;-82
2022/09/21 06:05:23;;;;;;;10.45;4.30;;;;;;;;;;1768337;81;21093;-81
2022/09/21 06:07:49;;;;;;;6.92;4.20;;;;;;;;;;1768362;81;21214;-80
2022/09/21 06:10:15;;;;;;;9.73;4.03;;;;;;;;;;1768761;81;21050;-81
2022/09/21 06:12:41;;;;;;;7.90;4.70;;;;;;;;;;1768759;81;21715;-81
2022/09/21 06:15:13;;;;;;;8.78;5.08;;;;;;;;;;1768442;81;21070;-82
2022/09/21 06:17:39;;;;;;;7.80;5.22;;;;;;;;;;1743110;81;21097;-82
2022/09/21 06:20:06;;;;;;;7.83;5.28;;;;;;;;;;1768233;81;21704;-82
2022/09/21 06:22:32;;;;;;;7.20;5.05;;;;;;;;;;1768370;81;21097;-82
2022/09/21 06:24:58;;;;;;;6.75;4.40;;;;;;;;;;1747497;81;21044;-82
2022/09/21 06:27:24;;;;;;;7.50;3.83;;;;;;;;;;1732008;82;20846;-82
2022/09/21 06:29:51;;;;;;;5.83;3.72;;;;;;;;;;1732462;82;21092;-81
2022/09/21 06:32:17;;;;;;;5.83;3.77;;;;;;;;;;1732017;81;21150;-81
2022/09/21 06:34:43;;;;;;;6.55;3.22;;;;;;;;;;1731942;82;21198;-81
2022/09/21 06:37:09;;;;;;;5.35;3.20;;;;;;;;;;1731840;82;20919;-81
2022/09/21 06:39:35;;;;;;;6.17;3.22;;;;;;;;;;1732144;82;20864;-83
2022/09/21 06:42:01;;;;;;;6.75;3.12;;;;;;;;;;1731351;82;21051;-82
2022/09/21 06:44:28;;;;;;;9.30;3.45;;;;;;;;;;1715915;82;21073;-84
2022/09/21 06:46:54;;;;;;;6.08;3.17;;;;;;;;;;1749656;81;21514;-81
2022/09/21 06:49:23;;;;;;;4.12;2.95;;;;;;;;;;1754442;81;20978;-81
2022/09/21 06:51:49;;;;;;;6.10;2.77;;;;;;;;;;1754463;81;21003;-81
2022/09/21 06:54:17;;;;;;;4.20;3.02;;;;;;;;;;1754536;81;20994;-83
2022/09/21 06:56:43;;;;;;;5.42;2.80;;;;;;;;;;1754062;81;21173;-82
2022/09/21 06:59:08;;;;;;;6.30;3.35;;;;;;;;;;1753750;81;21711;-81
2022/09/21 07:01:34;;;;;;;5.92;3.40;;;;;;;;;;1754233;81;20982;-81
2022/09/21 07:04:01;;;;;;;6.40;3.60;;;;;;;;;;1754347;81;21582;-82
2022/09/21 07:06:28;;;;;;;5.85;3.72;;;;;;;;;;1754286;81;21549;-82
2022/09/21 07:08:54;;;;;;;6.58;3.15;;;;;;;;;;1754007;81;21109;-82
2022/09/21 07:11:22;;;;;;;6.83;2.85;;;;;;;;;;1754482;81;21044;-82
2022/09/21 07:13:48;;;;;;;6.12;2.77;;;;;;;;;;1754199;81;21043;-83
2022/09/21 07:16:14;;;;;;;8.10;3.58;;;;;;;;;;1754316;81;21007;-82
2022/09/21 07:18:41;;;;;;;6.78;3.12;;;;;;;;;;1754524;81;21007;-83
2022/09/21 07:21:09;;;;;;;5.42;3.12;;;;;;;;;;1754716;81;21077;-82
2022/09/21 07:23:36;;;;;;;6.28;3.72;;;;;;;;;;1687242;85;21341;-83
2022/09/21 07:26:05;;;;;;;6.50;3.17;;;;;;;;;;1686754;85;21050;-82
2022/09/21 07:28:31;;;;;;;6.70;2.95;;;;;;;;;;1593665;88;21200;-82
2022/09/21 07:30:57;;;;;;;7.80;3.52;;;;;;;;;;1593618;88;21086;-83
2022/09/21 07:33:24;;;;;;;7.80;3.00;;;;;;;;;;1592045;88;21118;-83
2022/09/21 07:35:51;;;;;;;8.68;3.33;;;;;;;;;;1589081;89;21560;-82
2022/09/21 07:38:17;;;;;;;5.75;3.15;;;;;;;;;;1589097;89;21031;-83
2022/09/21 07:40:43;;;;;;;7.22;3.10;;;;;;;;;;1589443;89;20992;-82
2022/09/21 07:43:09;;;;;;;6.92;2.90;;;;;;;;;;1603153;88;21566;-82
2022/09/21 07:45:35;;;;;;;6.42;3.10;;;;;;;;;;1593097;87;21121;-82
2022/09/21 07:48:03;;;;;;;4.83;2.50;;;;;;;;;;1619787;87;20911;-82
2022/09/21 07:50:29;;;;;;;5.50;2.87;;;;;;;;;;1638109;87;21018;-82
2022/09/21 07:52:55;;;;;;;5.50;2.77;;;;;;;;;;1646031;86;21046;-83
2022/09/21 07:55:20;;;;;;;5.80;2.72;;;;;;;;;;1646044;87;21024;-81
2022/09/21 08:00:34;;;;;;;4.15;2.55;;;;;;;;;;1645831;87;21085;-82
2022/09/21 08:03:00;;;;;;;3.98;2.60;;;;;;;;;;1645678;87;21018;-81
2022/09/21 08:05:26;;;;;;;7.90;2.65;;;;;;;;;;1646094;87;21097;-81
2022/09/21 08:07:55;;;;;;;7.50;2.70;;;;;;;;;;1646035;87;21058;-81
2022/09/21 08:10:22;;;;;;;6.92;3.30;;;;;;;;;;1645911;87;21125;-81
2022/09/21 08:12:48;;;;;;;6.42;3.40;;;;;;;;;;1645875;87;21087;-81
2022/09/21 08:15:14;;;;;;;7.10;2.90;;;;;;;;;;1646244;87;21550;-81
2022/09/21 08:17:40;;;;;;;6.42;2.85;;;;;;;;;;1646183;87;20934;-81
2022/09/21 08:20:06;;;;;;;8.13;3.67;;;;;;;;;;1682381;82;20859;-80
2022/09/21 08:22:32;;;;;;;5.80;3.50;;;;;;;;;;1749507;82;21128;-81
2022/09/21 08:24:58;;;;;;;8.08;3.35;;;;;;;;;;1749249;82;20893;-81
2022/09/21 08:27:24;;;;;;;7.83;3.47;;;;;;;;;;1749183;82;20901;-81
2022/09/21 08:29:50;;;;;;;7.05;3.20;;;;;;;;;;1746807;82;21115;-82
2022/09/21 08:32:16;;;;;;;9.05;3.52;;;;;;;;;;1766842;78;20994;-81
2022/09/21 08:34:42;;;;;;;9.25;3.17;;;;;;;;;;1784570;80;21827;-81
2022/09/21 08:37:08;;;;;;;6.97;3.70;;;;;;;;;;1785398;80;20998;-81
2022/09/21 08:39:36;;;;;;;7.85;3.67;;;;;;;;;;1784970;80;20997;-82
2022/09/21 08:42:12;;;;;;;5.42;3.25;;;;;;;;;;1774083;80;21070;-82
2022/09/21 08:44:53;;;;;;;6.53;3.02;;;;;;;;;;1771819;80;21466;-82
2022/09/21 08:47:34;;;;;;;4.90;2.80;;;;;;;;;;1676847;85;21129;-82
2022/09/21 08:50:00;;;;;;;5.05;3.00;;;;;;;;;;1645656;86;21081;-82
2022/09/21 08:52:26;;;;;;;7.35;3.00;;;;;;;;;;1663740;85;21098;-81
2022/09/21 08:54:57;;;;;;;7.72;3.25;;;;;;;;;;1663376;85;20864;-81
2022/09/21 08:57:29;;;;;;;5.40;3.12;;;;;;;;;;1665765;85;21566;-81
2022/09/21 08:59:55;;;;;;;7.95;3.30;;;;;;;;;;1601999;88;21577;-81
2022/09/21 09:02:49;;;;;;;11.25;3.65;;;;;;;;;;1609302;87;21025;-81
2022/09/21 09:05:30;;;;;;;7.55;3.25;;;;;;;;;;1607577;88;21129;-81
2022/09/21 09:07:59;;;;;;;6.22;3.40;;;;;;;;;;1606969;88;21028;-80
2022/09/21 09:10:35;;;;;;;11.38;3.20;;;;;;;;;;1599315;88;21079;-80
2022/09/21 09:13:04;;;;;;;6.53;3.52;;;;;;;;;;1614553;88;21238;-80
2022/09/21 09:15:43;;;;;;;5.92;3.10;;;;;;;;;;1605228;88;21151;-80
2022/09/21 09:18:21;;;;;;;5.92;2.92;;;;;;;;;;1612189;88;21173;-80
2022/09/21 09:20:50;;;;;;;7.10;3.10;;;;;;;;;;1607728;88;21053;-79
2022/09/21 09:23:28;;;;;;;11.10;3.40;;;;;;;;;;1574036;90;21108;-80
2022/09/21 09:25:57;;;;;;;5.97;3.47;;;;;;;;;;1522145;93;21184;-80
2022/09/21 09:28:35;;;;;;;4.83;2.90;;;;;;;;;;1512400;93;21042;-80
2022/09/21 09:31:07;;;;;;;6.17;2.72;;;;;;;;;;1506739;94;21068;-80
2022/09/21 09:33:46;;;;;;;3.40;2.30;;;;;;;;;;1533243;90;21052;-80
2022/09/21 09:36:13;;;;;;;5.70;2.33;;;;;;;;;;1553194;91;21083;-80
2022/09/21 09:38:48;;;;;;;5.87;2.62;;;;;;;;;;1552964;91;21200;-80
2022/09/21 09:41:40;;;;;;;8.58;3.00;;;;;;;;;;1543138;91;21140;-81
2022/09/21 09:44:38;;;;;;;6.67;2.85;;;;;;;;;;1575924;88;21046;-80
2022/09/21 09:47:10;;;;;;;4.08;2.60;;;;;;;;;;1582961;88;21573;-80
2022/09/21 09:50:06;;;;;;;7.07;2.93;;;;;;;;;;1598542;89;21120;-80
2022/09/21 09:52:33;;;;;;;4.80;2.60;;;;;;;;;;1600092;89;21125;-80
2022/09/21 09:55:00;;;;;;;6.45;2.50;;;;;;;;;;1600020;89;21150;-81
2022/09/21 09:57:30;;;;;;;4.42;2.52;;;;;;;;;;1628366;86;21612;-81
2022/09/21 10:00:08;;;;;;;5.78;2.80;;;;;;;;;;1639336;87;21090;-80
2022/09/21 10:02:35;;;;;;;5.03;2.65;;;;;;;;;;1638592;86;21073;-80
2022/09/21 10:05:05;;;;;;;3.98;2.60;;;;;;;;;;1631596;86;21215;-80
2022/09/21 10:07:39;;;;;;;3.87;2.60;;;;;;;;;;1633487;86;21025;-80
2022/09/21 10:10:18;;;;;;;4.47;2.45;;;;;;;;;;1638026;86;21604;-80
2022/09/21 10:12:46;;;;;;;6.95;2.70;;;;;;;;;;1640520;86;21069;-80
2022/09/21 10:15:12;;;;;;;6.15;2.30;;;;;;;;;;1632021;86;21075;-80
2022/09/21 10:17:38;;;;;;;4.17;2.50;;;;;;;;;;1663450;86;21303;-80
2022/09/21 10:20:07;;;;;;;4.72;2.40;;;;;;;;;;1659572;86;21085;-80
2022/09/21 10:22:33;;;;;;;6.17;2.62;;;;;;;;;;1658122;83;21633;-80
2022/09/21 10:25:00;;;;;;;5.50;2.83;;;;;;;;;;1685760;83;20860;-80
2022/09/21 10:27:34;;;;;;;4.50;2.60;;;;;;;;;;1710896;81;21153;-80
2022/09/21 10:30:00;;;;;;;3.15;2.42;;;;;;;;;;1729566;81;21090;-81
2022/09/21 10:32:27;;;;;;;6.60;2.75;;;;;;;;;;1728433;81;20997;-80
2022/09/21 10:35:12;;;;;;;5.28;2.92;;;;;;;;;;1725506;82;21093;-80
2022/09/21 10:37:40;;;;;;;3.20;2.22;;;;;;;;;;1714556;82;21060;-79
2022/09/21 10:40:18;;;;;;;7.97;2.37;;;;;;;;;;1710229;82;21069;-80
2022/09/21 10:42:47;;;;;;;7.15;2.62;;;;;;;;;;1735759;82;21141;-80
2022/09/21 10:45:19;;;;;;;4.75;2.47;;;;;;;;;;1737348;82;21041;-80
2022/09/21 10:47:50;;;;;;;3.80;2.20;;;;;;;;;;1737605;82;21037;-79
2022/09/21 10:50:39;;;;;;;3.27;2.25;;;;;;;;;;1739451;81;21029;-79
2022/09/21 10:53:11;;;;;;;3.72;2.12;;;;;;;;;;1740743;82;21076;-80
2022/09/21 10:55:56;;;;;;;4.83;1.87;;;;;;;;;;1741425;82;21137;-80
2022/09/21 10:58:22;;;;;;;3.77;2.15;;;;;;;;;;1710996;83;20994;-79
2022/09/21 11:00:50;;;;;;;5.35;1.80;;;;;;;;;;1710983;83;21079;-80
2022/09/21 11:03:29;;;;;;;10.65;2.17;;;;;;;;;;1710638;83;21668;-80
2022/09/21 11:06:03;;;;;;;5.00;2.37;;;;;;;;;;1711006;83;21544;-80
2022/09/21 11:08:45;;;;;;;2.58;1.65;;;;;;;;;;1651956;86;21185;-79
2022/09/21 11:11:26;;;;;;;1.85;1.45;;;;;;;;;;1610436;89;21254;-80
2022/09/21 11:13:55;;;;;;;5.45;1.80;;;;;;;;;;1607522;89;21085;-80
2022/09/21 11:16:28;;;;;;;2.17;1.60;;;;;;;;;;1607520;89;21550;-80
2022/09/21 11:19:15;;;;;;;3.37;1.90;;;;;;;;;;1611154;89;21133;-79
2022/09/21 11:21:47;;;;;;;3.47;1.65;;;;;;;;;;1607586;89;21165;-79
2022/09/21 11:24:37;;;;;;;2.62;1.82;;;;;;;;;;1610491;89;21061;-80
2022/09/21 11:27:12;;;;;;;2.25;1.72;;;;;;;;;;1610713;89;21093;-79
2022/09/21 11:29:51;;;;;;;5.92;1.92;;;;;;;;;;1610741;89;21047;-79
2022/09/21 11:32:41;;;;;;;3.33;1.82;;;;;;;;;;1607602;89;21062;-80
2022/09/21 11:35:31;;;;;;;3.37;1.70;;;;;;;;;;1609880;89;21192;-79
2022/09/21 11:38:19;;;;;;;5.15;1.92;;;;;;;;;;1656492;86;21095;-80
2022/09/21 11:41:00;;;;;;;5.53;1.98;;;;;;;;;;1659604;86;21086;-80
2022/09/21 11:43:45;;;;;;;3.80;2.10;;;;;;;;;;1645750;86;21452;-80
2022/09/21 11:46:30;;;;;;;4.58;2.17;;;;;;;;;;1683791;82;21095;-81
2022/09/21 11:49:05;;;;;;;3.72;2.00;;;;;;;;;;1721447;82;21135;-80
2022/09/21 11:51:40;;;;;;;3.85;2.00;;;;;;;;;;1732185;82;21049;-80
2022/09/21 11:54:26;;;;;;;5.25;2.30;;;;;;;;;;1732318;82;21017;-80
2022/09/21 11:57:01;;;;;;;4.78;1.98;;;;;;;;;;1731877;82;21550;-80
2022/09/21 12:00:03;;;;;;;4.50;2.20;;;;;;;;;;1731928;82;21006;-80
2022/09/21 12:02:44;;;;;;;3.17;1.90;;;;;;;;;;1731761;82;21182;-80
2022/09/21 12:05:42;;;;;;;4.28;1.90;;;;;;;;;;1739367;81;20995;-79
2022/09/21 12:08:27;;;;;;;5.05;2.02;;;;;;;;;;1769204;81;21031;-80
2022/09/21 12:10:59;;;;;;;5.67;2.20;;;;;;;;;;1766573;81;21018;-79
2022/09/21 12:13:39;;;;;;;3.77;2.30;;;;;;;;;;1716895;83;21012;-79
2022/09/21 12:16:20;;;;;;;4.67;2.70;;;;;;;;;;1715300;83;21084;-80
2022/09/21 12:19:10;;;;;;;3.12;1.90;;;;;;;;;;1709460;83;21043;-81
2022/09/21 12:21:43;;;;;;;4.70;1.92;;;;;;;;;;1626216;86;21557;-80
2022/09/21 12:24:21;;;;;;;5.55;2.40;;;;;;;;;;1629572;86;22299;-80
2022/09/21 12:26:55;;;;;;;7.75;2.55;;;;;;;;;;1628207;86;21108;-81
2022/09/21 12:29:27;;;;;;;6.22;2.62;;;;;;;;;;1631906;86;21118;-81
2022/09/21 12:32:03;;;;;;;7.28;2.47;;;;;;;;;;1635544;86;21065;-80
2022/09/21 12:34:32;;;;;;;7.60;2.95;;;;;;;;;;1619203;88;21601;-80
2022/09/21 12:37:01;;;;;;;5.10;2.80;;;;;;;;;;1623172;88;21094;-79
2022/09/21 12:39:31;;;;;;;4.90;2.40;;;;;;;;;;1623058;87;21045;-80
2022/09/21 12:42:06;;;;;;;4.05;2.40;;;;;;;;;;1623379;87;21509;-81
2022/09/21 12:44:53;;;;;;;3.45;2.47;;;;;;;;;;1623266;88;21125;-81
2022/09/21 12:47:23;;;;;;;5.67;2.45;;;;;;;;;;1623184;88;21022;-80
2022/09/21 12:49:55;;;;;;;9.10;2.08;;;;;;;;;;1624898;85;21120;-80
2022/09/21 12:52:20;;;;;;;4.45;2.27;;;;;;;;;;1669701;85;21057;-80
2022/09/21 12:54:53;;;;;;;5.58;2.52;;;;;;;;;;1673771;85;21109;-80
2022/09/21 12:57:31;;;;;;;8.35;2.62;;;;;;;;;;1674181;85;21101;-81
2022/09/21 13:00:07;;;;;;;7.95;2.72;;;;;;;;;;1663510;85;21190;-80
2022/09/21 13:02:45;;;;;;;7.83;2.65;;;;;;;;;;1667573;85;21104;-80
2022/09/21 13:05:32;;;;;;;8.10;2.70;;;;;;;;;;1656450;86;21072;-79
2022/09/21 13:08:13;;;;;;;4.55;2.15;;;;;;;;;;1660659;85;21523;-80
2022/09/21 13:10:49;;;;;;;4.92;2.30;;;;;;;;;;1682833;83;21080;-79
2022/09/21 13:13:25;;;;;;;4.45;1.92;;;;;;;;;;1708177;83;21010;-80
2022/09/21 13:15:51;;;;;;;6.58;2.50;;;;;;;;;;1712014;83;21073;-80
2022/09/21 13:18:20;;;;;;;2.87;2.08;;;;;;;;;;1740395;81;20981;-80
2022/09/21 13:20:47;;;;;;;3.83;2.47;;;;;;;;;;1754050;81;21310;-79
2022/09/21 13:23:19;;;;;;;9.20;2.92;;;;;;;;;;1754123;81;21049;-80
2022/09/21 13:25:49;;;;;;;4.20;2.20;;;;;;;;;;1754206;81;21026;-80
2022/09/21 13:28:18;;;;;;;4.08;2.20;;;;;;;;;;1749908;81;21498;-80
2022/09/21 13:30:47;;;;;;;4.72;2.40;;;;;;;;;;1754241;81;20998;-80
2022/09/21 13:33:19;;;;;;;4.42;2.05;;;;;;;;;;1753984;81;21454;-80
2022/09/21 13:35:59;;;;;;;5.12;2.40;;;;;;;;;;1778122;79;21011;-80
2022/09/21 13:38:32;;;;;;;5.58;2.30;;;;;;;;;;1787678;80;21086;-81
2022/09/21 13:41:04;;;;;;;3.80;2.17;;;;;;;;;;1753673;81;20994;-80
2022/09/21 13:43:49;;;;;;;5.33;1.95;;;;;;;;;;1752638;81;21062;-80
2022/09/21 13:46:38;;;;;;;5.35;2.27;;;;;;;;;;1723952;83;21166;-80
2022/09/21 13:49:14;;;;;;;4.15;1.90;;;;;;;;;;1691053;83;21574;-82
2022/09/21 13:52:00;;;;;;;9.35;2.35;;;;;;;;;;1724659;83;21019;-82
2022/09/21 13:54:47;;;;;;;6.55;2.85;;;;;;;;;;1724857;83;21140;-81
2022/09/21 13:57:26;;;;;;;6.28;2.42;;;;;;;;;;1724854;83;21007;-81
2022/09/21 14:00:14;;;;;;;7.87;2.75;;;;;;;;;;1724954;83;21424;-81
2022/09/21 14:02:50;;;;;;;5.92;2.60;;;;;;;;;;1725153;83;21066;-81
2022/09/21 14:05:25;;;;;;;4.12;2.27;;;;;;;;;;1721879;83;21047;-82
2022/09/21 14:07:56;;;;;;;7.60;2.70;;;;;;;;;;1725407;83;21023;-82
2022/09/21 14:10:24;;;;;;;6.05;2.85;;;;;;;;;;1715941;82;21061;-81
2022/09/21 14:12:50;;;;;;;4.53;2.30;;;;;;;;;;1673030;84;20969;-81
2022/09/21 14:15:19;;;;;;;6.50;2.33;;;;;;;;;;1707014;83;21079;-81
2022/09/21 14:18:06;;;;;;;4.53;2.20;;;;;;;;;;1683907;83;21372;-82
2022/09/21 14:20:36;;;;;;;9.00;1.98;;;;;;;;;;1723675;82;21055;-83
2022/09/21 14:23:16;;;;;;;4.22;2.08;;;;;;;;;;1726128;83;21038;-83
2022/09/21 14:25:51;;;;;;;4.60;2.15;;;;;;;;;;1720720;82;22099;-82
2022/09/21 14:28:20;;;;;;;7.50;2.40;;;;;;;;;;1716652;83;21074;-82
2022/09/21 14:30:52;;;;;;;7.50;2.33;;;;;;;;;;1716801;83;21084;-83
2022/09/21 14:33:32;;;;;;;3.30;1.90;;;;;;;;;;1726917;81;21521;-82
2022/09/21 14:36:00;;;;;;;5.12;1.75;;;;;;;;;;1712572;81;21128;-82
2022/09/21 14:38:29;;;;;;;3.00;2.05;;;;;;;;;;1684884;83;21235;-82
2022/09/21 14:41:06;;;;;;;3.55;2.08;;;;;;;;;;1728297;83;21118;-82
2022/09/21 14:43:34;;;;;;;8.23;1.98;;;;;;;;;;1758682;81;21418;-82
2022/09/21 14:46:20;;;;;;;6.45;1.80;;;;;;;;;;1739679;81;21141;-82
2022/09/21 14:49:14;;;;;;;4.00;1.90;;;;;;;;;;1742289;81;21077;-82
2022/09/21 14:51:55;;;;;;;6.28;2.12;;;;;;;;;;1716694;83;22013;-82
2022/09/21 14:54:36;;;;;;;6.53;2.67;;;;;;;;;;1684129;84;21003;-81
2022/09/21 14:57:33;;;;;;;4.37;2.00;;;;;;;;;;1720551;83;21053;-82
2022/09/21 15:00:00;;;;;;;3.92;2.10;;;;;;;;;;1686322;84;21034;-82
2022/09/21 15:02:29;;;;;;;6.12;2.92;;;;;;;;;;1714387;83;21534;-83
2022/09/21 15:05:10;;;;;;;7.75;2.83;;;;;;;;;;1728655;81;21846;-84
2022/09/21 15:10:57;;;;;;;7.25;2.85;;;;;;;;;;1766702;79;21044;-84
2022/09/21 15:13:52;;;;;;;5.30;2.80;;;;;;;;;;1792863;79;21019;-85